Main page
METAR-TAF:

METAR-TAF

Airports :

Uherské Hradiště, Czech Republic

Kunovice Airport

latitude: 49-01-46N, longitude: 017-26-23E, elevation: 177 m

Current weather observation

The report was made 7 hours and 27 minutes ago, at 15:00 UTC
Wind 9 kt from the North
Temperature 1°C
Humidity 80%
Pressure 1025 hPa
Visibility: 9000 m
Few clouds at a height of 2900 ft

METAR: LKKU 181500Z 35009KT 9000 FEW029 01/M02 Q1025

Time: 23:27 (22:27 UTC)


TAF: missing

Weather observations and forecasts of more than 4000 airports (METAR and TAF reports).

The available stations are represented by yellow and red dots on the map.

Hover mouse over dot to see the name of the station.

Then click to see weather observations and forecasts.

To change the map : click on the green buttons with a black cross to zoom in, on the green button with a dash to zoom out, or on the green arrows for adjacent maps.


METAR-TAF: